createdAt,value
2017-12-27T00:00:29.639Z,973.65
2017-12-27T00:01:29.621Z,973.66
2017-12-27T00:02:29.616Z,973.63
2017-12-27T00:03:29.610Z,973.6
2017-12-27T00:04:29.602Z,973.56
2017-12-27T00:05:29.580Z,973.53
2017-12-27T00:06:29.570Z,973.5
2017-12-27T00:07:29.562Z,973.46
2017-12-27T00:08:29.575Z,973.55
2017-12-27T00:09:29.556Z,973.44
2017-12-27T00:10:29.532Z,973.45
2017-12-27T00:11:29.525Z,973.35
2017-12-27T00:12:29.512Z,973.37
2017-12-27T00:13:29.519Z,973.33
2017-12-27T00:14:29.504Z,973.3
2017-12-27T00:15:29.496Z,973.34
2017-12-27T00:16:29.484Z,973.35
2017-12-27T00:17:29.465Z,973.28
2017-12-27T00:18:29.454Z,973.22
2017-12-27T00:19:29.448Z,973.19
2017-12-27T00:20:29.451Z,973.1
2017-12-27T00:21:29.428Z,973.13
2017-12-27T00:22:29.425Z,973.12
2017-12-27T00:23:29.420Z,973.04
2017-12-27T00:24:29.403Z,973.06
2017-12-27T00:25:29.393Z,973.07
2017-12-27T00:26:29.379Z,973.08
2017-12-27T00:27:29.369Z,973.02
2017-12-27T00:28:29.362Z,973.05
2017-12-27T00:29:29.351Z,973.02
2017-12-27T00:30:29.344Z,973.02
2017-12-27T00:31:29.335Z,973
2017-12-27T00:32:29.324Z,973.01
2017-12-27T00:33:29.314Z,973
2017-12-27T00:34:29.316Z,973.03
2017-12-27T00:35:29.299Z,973.01
2017-12-27T00:36:29.291Z,972.97
2017-12-27T00:37:29.277Z,972.89
2017-12-27T00:38:29.269Z,972.89
2017-12-27T00:39:29.259Z,972.87
2017-12-27T00:40:29.251Z,972.79
2017-12-27T00:41:29.241Z,972.78
2017-12-27T00:42:29.232Z,972.73
2017-12-27T00:43:29.224Z,972.72
2017-12-27T00:44:29.214Z,972.68
2017-12-27T00:45:29.204Z,972.68
2017-12-27T00:46:29.196Z,972.57
2017-12-27T00:47:29.186Z,972.65
2017-12-27T00:48:29.181Z,972.6
2017-12-27T00:49:29.167Z,972.51
2017-12-27T00:50:29.157Z,972.48
2017-12-27T00:51:29.149Z,972.44
2017-12-27T00:52:29.140Z,972.48
2017-12-27T00:53:29.129Z,972.41
2017-12-27T00:54:29.122Z,972.38
2017-12-27T00:55:29.115Z,972.36
2017-12-27T00:56:29.100Z,972.36
2017-12-27T00:57:29.091Z,972.35
2017-12-27T00:58:29.083Z,972.37
2017-12-27T00:59:29.070Z,972.35
2017-12-27T01:00:29.066Z,972.33
2017-12-27T01:01:29.053Z,972.31
2017-12-27T01:02:29.044Z,972.35
2017-12-27T01:03:29.033Z,972.33
2017-12-27T01:04:29.023Z,972.28
2017-12-27T01:05:29.014Z,972.23
2017-12-27T01:06:29.004Z,972.31
2017-12-27T01:07:29.000Z,972.2
2017-12-27T01:08:28.989Z,972.23
2017-12-27T01:09:28.979Z,972.16
2017-12-27T01:10:28.966Z,972.15
2017-12-27T01:11:28.957Z,972.1
2017-12-27T01:12:28.947Z,972.12
2017-12-27T01:13:28.937Z,972.07
2017-12-27T01:14:28.933Z,972.1
2017-12-27T01:15:28.921Z,972.09
2017-12-27T01:16:28.910Z,972.1
2017-12-27T01:17:28.899Z,972
2017-12-27T01:18:28.900Z,971.96
2017-12-27T01:19:28.882Z,971.94
2017-12-27T01:20:28.873Z,971.93
2017-12-27T01:21:28.865Z,971.86
2017-12-27T01:22:28.850Z,971.87
2017-12-27T01:23:28.840Z,971.81
2017-12-27T01:24:28.837Z,971.81
2017-12-27T01:25:28.820Z,971.8
2017-12-27T01:26:28.810Z,971.78
2017-12-27T01:27:28.806Z,971.78
2017-12-27T01:28:28.793Z,971.71
2017-12-27T01:29:28.795Z,971.66
2017-12-27T01:30:28.771Z,971.66
2017-12-27T01:31:28.761Z,971.68
2017-12-27T01:32:28.751Z,971.66
2017-12-27T01:33:28.741Z,971.59
2017-12-27T01:34:28.734Z,971.57
2017-12-27T01:35:28.722Z,971.52
2017-12-27T01:36:28.713Z,971.49
2017-12-27T01:37:28.704Z,971.46
2017-12-27T01:38:28.695Z,971.43
2017-12-27T01:39:28.684Z,971.42
2017-12-27T01:40:28.672Z,971.36
2017-12-27T01:41:28.666Z,971.3
2017-12-27T01:42:28.653Z,971.22
2017-12-27T01:43:28.643Z,971.21
2017-12-27T01:44:28.633Z,971.21
2017-12-27T01:45:28.625Z,971.17
2017-12-27T01:46:28.617Z,971.16
2017-12-27T01:47:28.610Z,971.13
2017-12-27T01:48:28.594Z,971.12
2017-12-27T01:49:28.585Z,971.13
2017-12-27T01:50:28.575Z,971.04
2017-12-27T01:51:28.564Z,971.04
2017-12-27T01:52:28.557Z,971.07
2017-12-27T01:53:28.553Z,970.97
2017-12-27T01:54:28.536Z,970.91
2017-12-27T01:55:28.528Z,970.92
2017-12-27T01:56:28.519Z,970.91
2017-12-27T01:57:28.508Z,970.88
2017-12-27T01:58:28.496Z,970.84
2017-12-27T01:59:28.494Z,970.78
2017-12-27T02:00:28.479Z,970.74
2017-12-27T02:01:28.471Z,970.68
2017-12-27T02:02:28.459Z,970.62
2017-12-27T02:03:28.451Z,970.61
2017-12-27T02:04:28.448Z,970.62
2017-12-27T02:05:28.439Z,970.6
2017-12-27T02:06:28.420Z,970.56
2017-12-27T02:07:28.412Z,970.52
2017-12-27T02:08:28.401Z,970.51
2017-12-27T02:09:28.392Z,970.49
2017-12-27T02:10:28.382Z,970.44
2017-12-27T02:11:28.373Z,970.41
2017-12-27T02:12:28.363Z,970.37
2017-12-27T02:13:28.354Z,970.33
2017-12-27T02:14:28.345Z,970.36
2017-12-27T02:15:28.337Z,970.27
2017-12-27T02:16:28.350Z,970.28
2017-12-27T02:17:28.329Z,970.24
2017-12-27T02:18:28.307Z,970.16
2017-12-27T02:19:28.296Z,970.18
2017-12-27T02:20:28.287Z,970.1
2017-12-27T02:21:28.280Z,970.11
2017-12-27T02:22:28.280Z,970.08
2017-12-27T02:23:28.258Z,970.07
2017-12-27T02:24:28.251Z,970
2017-12-27T02:25:28.241Z,969.92
2017-12-27T02:26:28.234Z,969.92
2017-12-27T02:27:28.222Z,969.91
2017-12-27T02:28:28.224Z,969.82
2017-12-27T02:29:28.203Z,969.77
2017-12-27T02:30:28.194Z,969.73
2017-12-27T02:31:28.185Z,969.7
2017-12-27T02:32:28.176Z,969.63
2017-12-27T02:33:28.179Z,969.6
2017-12-27T02:34:28.157Z,969.56
2017-12-27T02:35:28.156Z,969.52
2017-12-27T02:36:28.141Z,969.53
2017-12-27T02:37:28.131Z,969.51
2017-12-27T02:38:28.122Z,969.46
2017-12-27T02:39:28.113Z,969.47
2017-12-27T02:40:28.105Z,969.4
2017-12-27T02:41:28.095Z,969.43
2017-12-27T02:42:28.086Z,969.45
2017-12-27T02:43:28.077Z,969.5
2017-12-27T02:44:28.069Z,969.44
2017-12-27T02:45:28.059Z,969.4
2017-12-27T02:46:28.053Z,969.39
2017-12-27T02:47:28.043Z,969.37
2017-12-27T02:48:28.034Z,969.34
2017-12-27T02:49:28.024Z,969.31
2017-12-27T02:50:28.022Z,969.3
2017-12-27T02:51:28.011Z,969.27
2017-12-27T02:52:27.998Z,969.25
2017-12-27T02:53:27.990Z,969.26
2017-12-27T02:54:27.983Z,969.19
2017-12-27T02:55:27.976Z,969.17
2017-12-27T02:56:27.965Z,969.13
2017-12-27T02:57:27.955Z,969.11
2017-12-27T02:58:27.949Z,968.99
2017-12-27T02:59:27.938Z,968.97
2017-12-27T03:00:27.934Z,968.95
2017-12-27T03:01:27.933Z,968.89
2017-12-27T03:02:27.913Z,968.93
2017-12-27T03:03:27.905Z,968.86
2017-12-27T03:04:27.895Z,968.81
2017-12-27T03:05:27.888Z,968.82
2017-12-27T03:06:27.879Z,968.74
2017-12-27T03:07:27.875Z,968.68
2017-12-27T03:08:27.867Z,968.66
2017-12-27T03:09:27.854Z,968.58
2017-12-27T03:10:27.845Z,968.5
2017-12-27T03:11:27.835Z,968.54
2017-12-27T03:12:27.830Z,968.52
2017-12-27T03:13:27.820Z,968.51
2017-12-27T03:14:27.814Z,968.56
2017-12-27T03:15:27.801Z,968.49
2017-12-27T03:16:27.794Z,968.44
2017-12-27T03:17:27.786Z,968.44
2017-12-27T03:18:27.775Z,968.45
2017-12-27T03:19:27.768Z,968.45
2017-12-27T03:20:27.762Z,968.41
2017-12-27T03:21:27.751Z,968.39
2017-12-27T03:22:27.741Z,968.36
2017-12-27T03:23:27.735Z,968.32
2017-12-27T03:24:27.727Z,968.27
2017-12-27T03:25:27.717Z,968.29
2017-12-27T03:26:27.709Z,968.15
2017-12-27T03:27:27.700Z,968.16
2017-12-27T03:28:27.695Z,968.07
2017-12-27T03:29:27.683Z,968.07
2017-12-27T03:30:27.676Z,968.03
2017-12-27T03:31:27.666Z,968.04
2017-12-27T03:32:27.667Z,967.99
2017-12-27T03:33:27.651Z,967.99
2017-12-27T03:34:27.650Z,967.91
2017-12-27T03:35:27.635Z,967.92
2017-12-27T03:36:27.626Z,967.98
2017-12-27T03:37:27.618Z,967.97
2017-12-27T03:38:27.614Z,968.02
2017-12-27T03:39:27.601Z,967.99
2017-12-27T03:40:27.592Z,967.92
2017-12-27T03:41:27.586Z,967.92
2017-12-27T03:42:27.577Z,967.89
2017-12-27T03:43:27.569Z,967.86
2017-12-27T03:44:27.559Z,967.8
2017-12-27T03:45:27.557Z,967.82
2017-12-27T03:46:27.544Z,967.82
2017-12-27T03:47:27.536Z,967.82
2017-12-27T03:48:27.527Z,967.84
2017-12-27T03:49:27.520Z,967.79
2017-12-27T03:50:27.513Z,967.71
2017-12-27T03:51:27.503Z,967.68
2017-12-27T03:52:27.494Z,967.65
2017-12-27T03:53:27.487Z,967.62
2017-12-27T03:54:27.490Z,967.67
2017-12-27T03:55:27.470Z,967.64
2017-12-27T03:56:27.470Z,967.61
2017-12-27T03:57:27.452Z,967.63
2017-12-27T03:58:27.446Z,967.63
2017-12-27T03:59:27.445Z,967.63
2017-12-27T04:00:27.432Z,967.63
2017-12-27T04:01:27.434Z,967.53
2017-12-27T04:02:27.415Z,967.49
2017-12-27T04:03:27.408Z,967.45
2017-12-27T04:04:27.399Z,967.44
2017-12-27T04:05:27.396Z,967.45
2017-12-27T04:06:27.387Z,967.43
2017-12-27T04:07:27.374Z,967.45
2017-12-27T04:08:27.365Z,967.46
2017-12-27T04:09:27.358Z,967.42
2017-12-27T04:10:27.346Z,967.33
2017-12-27T04:11:27.341Z,967.28
2017-12-27T04:12:27.344Z,967.24
2017-12-27T04:13:27.322Z,967.15
2017-12-27T04:14:27.317Z,967.16
2017-12-27T04:15:27.316Z,967.07
2017-12-27T04:16:27.302Z,967.03
2017-12-27T04:17:27.295Z,967
2017-12-27T04:18:27.298Z,966.93
2017-12-27T04:19:27.281Z,966.93
2017-12-27T04:20:27.281Z,966.88
2017-12-27T04:21:27.271Z,966.9
2017-12-27T04:22:27.257Z,966.87
2017-12-27T04:23:27.262Z,966.85
2017-12-27T04:24:27.253Z,966.88
2017-12-27T04:25:27.220Z,966.86
2017-12-27T04:26:27.230Z,966.82
2017-12-27T04:27:27.211Z,966.76
2017-12-27T04:28:27.204Z,966.76
2017-12-27T04:29:27.193Z,966.71
2017-12-27T04:30:27.187Z,966.66
2017-12-27T04:31:27.169Z,966.64
2017-12-27T04:32:27.162Z,966.6
2017-12-27T04:33:27.156Z,966.6
2017-12-27T04:34:27.395Z,966.6
2017-12-27T04:35:27.138Z,966.62
2017-12-27T04:36:27.132Z,966.59
2017-12-27T04:37:27.122Z,966.57
2017-12-27T04:38:27.111Z,966.58
2017-12-27T04:39:27.105Z,966.6
2017-12-27T04:40:27.094Z,966.62
2017-12-27T04:41:27.087Z,966.65
2017-12-27T04:42:27.080Z,966.62
2017-12-27T04:43:27.088Z,966.58
2017-12-27T04:44:27.061Z,966.58
2017-12-27T04:45:27.053Z,966.5
2017-12-27T04:46:27.044Z,966.51
2017-12-27T04:47:27.037Z,966.46
2017-12-27T04:48:27.027Z,966.43
2017-12-27T04:49:27.020Z,966.34
2017-12-27T04:50:27.011Z,966.33
2017-12-27T04:51:27.004Z,966.28
2017-12-27T04:52:26.994Z,966.22
2017-12-27T04:53:26.986Z,966.2
2017-12-27T04:54:26.978Z,966.12
2017-12-27T04:55:26.971Z,966.05
2017-12-27T04:56:26.962Z,966.03
2017-12-27T04:57:26.952Z,965.99
2017-12-27T04:58:26.946Z,965.95
2017-12-27T04:59:26.945Z,965.96
2017-12-27T05:00:26.927Z,965.92
2017-12-27T05:01:26.919Z,965.93
2017-12-27T05:02:26.912Z,965.9
2017-12-27T05:03:26.907Z,965.89
2017-12-27T05:04:26.900Z,965.85
2017-12-27T05:05:26.889Z,965.83
2017-12-27T05:06:26.888Z,965.91
2017-12-27T05:07:26.893Z,965.82
2017-12-27T05:08:26.907Z,965.88
2017-12-27T05:09:26.859Z,965.9
2017-12-27T05:10:26.888Z,965.9
2017-12-27T05:11:26.852Z,965.9
2017-12-27T05:12:26.852Z,965.87
2017-12-27T05:13:26.846Z,965.92
2017-12-27T05:14:26.823Z,965.87
2017-12-27T05:15:26.809Z,965.87
2017-12-27T05:16:26.809Z,965.88
2017-12-27T05:17:26.816Z,965.93
2017-12-27T05:18:26.799Z,965.92
2017-12-27T05:19:26.793Z,965.9
2017-12-27T05:20:26.765Z,965.93
2017-12-27T05:21:26.768Z,965.87
2017-12-27T05:22:26.762Z,965.88
2017-12-27T05:23:26.764Z,965.88
2017-12-27T05:24:26.762Z,965.83
2017-12-27T05:25:26.737Z,965.89
2017-12-27T05:26:26.715Z,965.81
2017-12-27T05:27:26.720Z,965.89
2017-12-27T05:28:26.707Z,965.92
2017-12-27T05:29:26.719Z,965.94
2017-12-27T05:30:26.696Z,965.94
2017-12-27T05:31:26.699Z,965.95
2017-12-27T05:32:26.704Z,965.98
2017-12-27T05:33:26.675Z,965.98
2017-12-27T05:34:26.655Z,966.05
2017-12-27T05:35:26.660Z,966.05
2017-12-27T05:36:26.653Z,966.03
2017-12-27T05:37:26.639Z,966.01
2017-12-27T05:38:26.626Z,966.02
2017-12-27T05:39:26.620Z,966.04
2017-12-27T05:40:26.654Z,966.04
2017-12-27T05:41:26.621Z,966.08
2017-12-27T05:42:26.612Z,966.08
2017-12-27T05:43:26.600Z,966.07
2017-12-27T05:44:26.596Z,966.07
2017-12-27T05:45:26.576Z,966.05
2017-12-27T05:46:26.570Z,966.01
2017-12-27T05:47:26.570Z,965.98
2017-12-27T05:48:26.539Z,965.96
2017-12-27T05:49:26.546Z,965.94
2017-12-27T05:50:26.539Z,965.92
2017-12-27T05:51:26.524Z,965.87
2017-12-27T05:52:26.511Z,965.86
2017-12-27T05:53:26.499Z,965.87
2017-12-27T05:54:26.494Z,965.83
2017-12-27T05:55:26.482Z,965.82
2017-12-27T05:56:26.474Z,965.79
2017-12-27T05:57:26.471Z,965.79
2017-12-27T05:58:26.458Z,965.8
2017-12-27T05:59:26.452Z,965.76
2017-12-27T06:00:26.443Z,965.75
2017-12-27T06:01:26.436Z,965.75
2017-12-27T06:02:26.427Z,965.82
2017-12-27T06:03:26.419Z,965.86
2017-12-27T06:04:26.412Z,965.89
2017-12-27T06:05:26.404Z,965.94
2017-12-27T06:06:26.396Z,965.9
2017-12-27T06:07:26.388Z,965.92
2017-12-27T06:08:26.380Z,965.91
2017-12-27T06:09:26.372Z,965.96
2017-12-27T06:10:26.367Z,965.96
2017-12-27T06:11:26.367Z,965.97
2017-12-27T06:12:26.350Z,965.97
2017-12-27T06:13:26.343Z,965.94
2017-12-27T06:14:26.333Z,965.9
2017-12-27T06:15:26.326Z,965.92
2017-12-27T06:16:26.326Z,965.91
2017-12-27T06:17:26.309Z,965.89
2017-12-27T06:18:26.306Z,965.92
2017-12-27T06:19:26.294Z,965.88
2017-12-27T06:20:26.287Z,965.85
2017-12-27T06:21:26.281Z,965.84
2017-12-27T06:22:26.271Z,965.79
2017-12-27T06:23:26.263Z,965.8
2017-12-27T06:24:26.255Z,965.8
2017-12-27T06:25:26.247Z,965.74
2017-12-27T06:26:26.242Z,965.77
2017-12-27T06:27:26.232Z,965.74
2017-12-27T06:28:26.227Z,965.78
2017-12-27T06:29:26.217Z,965.84
2017-12-27T06:30:26.210Z,965.82
2017-12-27T06:31:26.200Z,965.8
2017-12-27T06:32:26.193Z,965.82
2017-12-27T06:33:26.185Z,965.82
2017-12-27T06:34:26.184Z,965.78
2017-12-27T06:35:31.424Z,965.79
2017-12-27T06:36:26.166Z,965.73
2017-12-27T06:37:26.156Z,965.78
2017-12-27T06:38:26.148Z,965.75
2017-12-27T06:39:26.139Z,965.76
2017-12-27T06:40:26.131Z,965.74
2017-12-27T06:41:26.127Z,965.72
2017-12-27T06:42:26.116Z,965.69
2017-12-27T06:43:26.109Z,965.63
2017-12-27T06:44:26.100Z,965.59
2017-12-27T06:45:26.091Z,965.59
2017-12-27T06:46:26.084Z,965.59
2017-12-27T06:47:26.082Z,965.65
2017-12-27T06:48:26.080Z,965.67
2017-12-27T06:49:26.062Z,965.71
2017-12-27T06:50:26.057Z,965.73
2017-12-27T06:51:26.047Z,965.76
2017-12-27T06:52:26.038Z,965.68
2017-12-27T06:53:26.030Z,965.67
2017-12-27T06:54:26.023Z,965.59
2017-12-27T06:55:26.015Z,965.58
2017-12-27T06:56:26.008Z,965.6
2017-12-27T06:57:25.999Z,965.56
2017-12-27T06:58:25.992Z,965.5
2017-12-27T06:59:25.985Z,965.41
2017-12-27T07:00:25.976Z,965.43
2017-12-27T07:01:25.978Z,965.44
2017-12-27T07:02:25.960Z,965.43
2017-12-27T07:03:25.955Z,965.42
2017-12-27T07:04:25.947Z,965.48
2017-12-27T07:05:25.937Z,965.49
2017-12-27T07:06:26.982Z,965.51
2017-12-27T07:07:25.922Z,965.46
2017-12-27T07:08:25.919Z,965.38
2017-12-27T07:09:25.906Z,965.34
2017-12-27T07:10:25.901Z,965.32
2017-12-27T07:11:25.892Z,965.32
2017-12-27T07:12:25.882Z,965.34
2017-12-27T07:13:25.877Z,965.36
2017-12-27T07:14:25.868Z,965.37
2017-12-27T07:15:25.861Z,965.3
2017-12-27T07:16:25.853Z,965.3
2017-12-27T07:17:25.852Z,965.27
2017-12-27T07:18:25.837Z,965.28
2017-12-27T07:19:25.828Z,965.31
2017-12-27T07:20:25.823Z,965.37
2017-12-27T07:21:25.820Z,965.33
2017-12-27T07:22:25.806Z,965.29
2017-12-27T07:23:25.798Z,965.27
2017-12-27T07:24:25.799Z,965.28
2017-12-27T07:25:25.783Z,965.27
2017-12-27T07:26:25.801Z,965.32
2017-12-27T07:27:25.768Z,965.38
2017-12-27T07:28:25.762Z,965.35
2017-12-27T07:29:25.753Z,965.37
2017-12-27T07:30:25.746Z,965.3
2017-12-27T07:31:25.744Z,965.28
2017-12-27T07:32:25.741Z,965.26
2017-12-27T07:33:25.722Z,965.22
2017-12-27T07:34:25.716Z,965.19
2017-12-27T07:35:25.710Z,965.21
2017-12-27T07:36:25.700Z,965.23
2017-12-27T07:37:25.697Z,965.22
2017-12-27T07:38:25.688Z,965.26
2017-12-27T07:39:25.676Z,965.23
2017-12-27T07:40:25.670Z,965.2
2017-12-27T07:41:25.662Z,965.24
2017-12-27T07:42:25.654Z,965.22
2017-12-27T07:43:25.651Z,965.23
2017-12-27T07:44:25.646Z,965.22
2017-12-27T07:45:25.634Z,965.2
2017-12-27T07:46:25.624Z,965.14
2017-12-27T07:47:25.617Z,965.12
2017-12-27T07:48:25.613Z,965.13
2017-12-27T07:49:25.602Z,965.09
2017-12-27T07:50:25.593Z,965.04
2017-12-27T07:51:25.587Z,965
2017-12-27T07:52:25.584Z,965.06
2017-12-27T07:53:25.570Z,965.06
2017-12-27T07:54:25.562Z,965.02
2017-12-27T07:55:25.557Z,965.03
2017-12-27T07:56:25.548Z,964.96
2017-12-27T07:57:25.541Z,964.95
2017-12-27T07:58:25.536Z,964.92
2017-12-27T07:59:25.523Z,964.95
2017-12-27T08:00:25.516Z,964.97
2017-12-27T08:01:25.510Z,964.98
2017-12-27T08:02:25.502Z,964.89
2017-12-27T08:03:25.493Z,964.85
2017-12-27T08:04:25.487Z,964.88
2017-12-27T08:05:25.479Z,964.85
2017-12-27T08:06:25.471Z,964.86
2017-12-27T08:07:25.462Z,964.89
2017-12-27T08:08:25.456Z,964.84
2017-12-27T08:09:25.448Z,964.81
2017-12-27T08:10:25.440Z,964.83
2017-12-27T08:11:25.434Z,964.8
2017-12-27T08:12:25.425Z,964.83
2017-12-27T08:13:25.418Z,964.81
2017-12-27T08:14:25.415Z,964.79
2017-12-27T08:15:25.402Z,964.75
2017-12-27T08:16:25.397Z,964.75
2017-12-27T08:17:25.389Z,964.72
2017-12-27T08:18:25.380Z,964.68
2017-12-27T08:19:25.371Z,964.63
2017-12-27T08:20:25.365Z,964.66
2017-12-27T08:21:25.357Z,964.58
2017-12-27T08:22:25.353Z,964.55
2017-12-27T08:23:25.347Z,964.49
2017-12-27T08:24:25.339Z,964.54
2017-12-27T08:25:25.328Z,964.53
2017-12-27T08:26:25.321Z,964.49
2017-12-27T08:27:25.314Z,964.44
2017-12-27T08:28:25.310Z,964.46
2017-12-27T08:29:25.302Z,964.51
2017-12-27T08:30:25.291Z,964.52
2017-12-27T08:31:25.284Z,964.54
2017-12-27T08:32:25.276Z,964.54
2017-12-27T08:33:25.270Z,964.55
2017-12-27T08:34:25.270Z,964.57
2017-12-27T08:35:25.254Z,964.55
2017-12-27T08:36:25.244Z,964.54
2017-12-27T08:37:28.990Z,964.56
2017-12-27T08:38:25.229Z,964.54
2017-12-27T08:39:25.224Z,964.56
2017-12-27T08:40:25.216Z,964.56
2017-12-27T08:41:25.212Z,964.58
2017-12-27T08:42:25.197Z,964.55
2017-12-27T08:43:25.190Z,964.57
2017-12-27T08:44:25.183Z,964.59
2017-12-27T08:45:25.174Z,964.63
2017-12-27T08:46:25.174Z,964.6
2017-12-27T08:47:25.158Z,964.61
2017-12-27T08:48:25.151Z,964.61
2017-12-27T08:49:25.145Z,964.54
2017-12-27T08:50:25.138Z,964.51
2017-12-27T08:51:25.128Z,964.5
2017-12-27T08:52:25.122Z,964.47
2017-12-27T08:53:25.116Z,964.49
2017-12-27T08:54:25.107Z,964.51
2017-12-27T08:55:25.101Z,964.48
2017-12-27T08:56:25.092Z,964.46
2017-12-27T08:57:25.085Z,964.37
2017-12-27T08:58:25.078Z,964.38
2017-12-27T08:59:25.072Z,964.34
2017-12-27T09:00:25.063Z,964.32
2017-12-27T09:01:25.058Z,964.28
2017-12-27T09:02:25.050Z,964.25
2017-12-27T09:03:25.044Z,964.22
2017-12-27T09:04:25.036Z,964.22
2017-12-27T09:05:25.033Z,964.24
2017-12-27T09:06:25.022Z,964.21
2017-12-27T09:07:25.016Z,964.19
2017-12-27T09:08:25.009Z,964.16
2017-12-27T09:09:25.001Z,964.17
2017-12-27T09:10:24.993Z,964.18
2017-12-27T09:11:24.987Z,964.14
2017-12-27T09:12:24.980Z,964.17
2017-12-27T09:13:24.972Z,964.19
2017-12-27T09:14:24.964Z,964.25
2017-12-27T09:15:24.957Z,964.21
2017-12-27T09:16:24.949Z,964.3
2017-12-27T09:17:24.944Z,964.31
2017-12-27T09:18:24.935Z,964.37
2017-12-27T09:19:24.929Z,964.36
2017-12-27T09:20:24.920Z,964.39
2017-12-27T09:21:24.915Z,964.47
2017-12-27T09:22:24.908Z,964.48
2017-12-27T09:23:24.902Z,964.54
2017-12-27T09:24:24.890Z,964.55
2017-12-27T09:25:24.890Z,964.53
2017-12-27T09:26:24.878Z,964.49
2017-12-27T09:27:24.870Z,964.45
2017-12-27T09:28:24.869Z,964.46
2017-12-27T09:29:24.853Z,964.48
2017-12-27T09:30:24.848Z,964.46
2017-12-27T09:31:24.839Z,964.43
2017-12-27T09:32:24.832Z,964.43
2017-12-27T09:33:24.830Z,964.45
2017-12-27T09:34:24.820Z,964.44
2017-12-27T09:35:24.817Z,964.53
2017-12-27T09:36:24.802Z,964.53
2017-12-27T09:37:24.799Z,964.52
2017-12-27T09:38:26.702Z,964.48
2017-12-27T09:39:24.780Z,964.5
2017-12-27T09:40:24.774Z,964.54
2017-12-27T09:41:24.768Z,964.55
2017-12-27T09:42:24.764Z,964.53
2017-12-27T09:43:24.753Z,964.49
2017-12-27T09:44:24.745Z,964.52
2017-12-27T09:45:24.741Z,964.48
2017-12-27T09:46:24.731Z,964.46
2017-12-27T09:47:24.725Z,964.43
2017-12-27T09:48:24.717Z,964.41
2017-12-27T09:49:24.709Z,964.43
2017-12-27T09:50:24.702Z,964.4
2017-12-27T09:51:24.696Z,964.33
2017-12-27T09:52:24.693Z,964.3
2017-12-27T09:53:24.680Z,964.27
2017-12-27T09:54:24.674Z,964.24
2017-12-27T09:55:24.669Z,964.2
2017-12-27T09:56:24.665Z,964.11
2017-12-27T09:57:24.652Z,964.07
2017-12-27T09:58:24.646Z,964.08
2017-12-27T09:59:24.639Z,964.1
2017-12-27T10:00:24.630Z,964.13
2017-12-27T10:01:24.624Z,964.05
2017-12-27T10:02:24.618Z,964.06
2017-12-27T10:03:24.612Z,964.07
2017-12-27T10:04:24.609Z,964.07
2017-12-27T10:05:24.597Z,964.08
2017-12-27T10:06:24.589Z,964.05
2017-12-27T10:07:24.582Z,964.02
2017-12-27T10:08:24.574Z,964.04
2017-12-27T10:09:24.569Z,964.01
2017-12-27T10:10:24.562Z,963.95
2017-12-27T10:11:24.554Z,963.93
2017-12-27T10:12:24.550Z,963.88
2017-12-27T10:13:24.546Z,963.86
2017-12-27T10:14:24.533Z,963.88
2017-12-27T10:15:24.527Z,963.85
2017-12-27T10:16:24.519Z,963.79
2017-12-27T10:17:24.511Z,963.77
2017-12-27T10:18:24.505Z,963.72
2017-12-27T10:19:24.498Z,963.66
2017-12-27T10:20:24.495Z,963.58
2017-12-27T10:21:24.494Z,963.53
2017-12-27T10:22:24.477Z,963.65
2017-12-27T10:52:45.192Z,962.46
2017-12-27T10:53:45.176Z,962.44
2017-12-27T10:54:45.163Z,962.46
2017-12-27T10:55:45.150Z,962.43
2017-12-27T10:56:45.138Z,962.43
2017-12-27T10:57:45.129Z,962.5
2017-12-27T10:58:45.117Z,962.58
2017-12-27T10:59:45.108Z,962.65
2017-12-27T11:00:45.104Z,962.81
2017-12-27T11:01:45.088Z,962.81
2017-12-27T11:02:45.078Z,962.76
2017-12-27T11:03:45.072Z,962.72
2017-12-27T11:04:45.060Z,962.66
2017-12-27T11:05:45.054Z,962.6
2017-12-27T11:06:45.058Z,962.58
2017-12-27T11:07:45.035Z,962.63
2017-12-27T11:08:45.029Z,962.67
2017-12-27T11:09:45.021Z,962.63
2017-12-27T11:10:45.020Z,962.63
2017-12-27T11:11:45.007Z,962.62
2017-12-27T11:12:44.997Z,962.58
2017-12-27T11:13:44.993Z,962.59
2017-12-27T11:14:44.982Z,962.56
2017-12-27T11:15:44.981Z,962.52
2017-12-27T11:16:44.968Z,962.53
2017-12-27T11:17:44.960Z,962.48
2017-12-27T11:18:44.954Z,962.42
2017-12-27T11:19:44.948Z,962.4
2017-12-27T11:20:44.940Z,962.42
2017-12-27T11:21:44.933Z,962.35
2017-12-27T11:22:44.933Z,962.36
2017-12-27T11:23:44.930Z,962.35
2017-12-27T11:24:44.912Z,962.35
2017-12-27T11:25:44.905Z,962.29
2017-12-27T11:26:44.898Z,962.27
2017-12-27T11:27:44.893Z,962.24
2017-12-27T11:28:44.886Z,962.3
2017-12-27T11:29:44.879Z,962.32
2017-12-27T11:30:44.884Z,962.31
2017-12-27T11:31:44.867Z,962.34
2017-12-27T11:32:44.861Z,962.31
2017-12-27T11:33:44.854Z,962.32
2017-12-27T11:34:44.856Z,962.28
2017-12-27T11:35:44.840Z,962.28
2017-12-27T11:36:44.835Z,962.33
2017-12-27T11:37:44.830Z,962.28
2017-12-27T11:38:44.824Z,962.27
2017-12-27T11:39:44.823Z,962.31
2017-12-27T11:40:44.817Z,962.3
2017-12-27T11:41:44.804Z,962.25
2017-12-27T11:42:44.799Z,962.24
2017-12-27T11:43:44.794Z,962.23
2017-12-27T11:44:44.785Z,962.27
2017-12-27T11:45:44.785Z,962.23
2017-12-27T11:46:44.977Z,962.25
2017-12-27T11:47:44.779Z,962.24
2017-12-27T11:48:44.768Z,962.24
2017-12-27T11:49:44.770Z,962.23
2017-12-27T11:50:44.752Z,962.18
2017-12-27T11:51:44.746Z,962.13
2017-12-27T11:52:44.741Z,962.06
2017-12-27T11:53:44.737Z,962.04
2017-12-27T11:54:44.729Z,961.99
2017-12-27T11:55:44.724Z,962.01
2017-12-27T11:56:44.717Z,961.98
2017-12-27T11:57:44.711Z,961.97
2017-12-27T11:58:44.706Z,961.92
2017-12-27T11:59:44.701Z,961.96
2017-12-27T12:00:44.695Z,961.98
2017-12-27T12:01:44.690Z,961.99
2017-12-27T12:02:44.684Z,961.99
2017-12-27T12:03:44.679Z,961.96
2017-12-27T12:04:44.675Z,961.87
2017-12-27T12:05:44.671Z,961.76
2017-12-27T12:06:44.664Z,961.81
2017-12-27T12:07:44.660Z,961.84
2017-12-27T12:08:44.655Z,961.87
2017-12-27T12:09:44.650Z,961.83
2017-12-27T12:10:44.644Z,961.76
2017-12-27T12:11:44.640Z,961.77
2017-12-27T12:12:44.634Z,961.79
2017-12-27T12:13:44.629Z,961.75
2017-12-27T12:14:44.627Z,961.72
2017-12-27T12:15:44.619Z,961.71
2017-12-27T12:16:44.612Z,961.66
2017-12-27T12:17:44.609Z,961.68
2017-12-27T12:18:44.603Z,961.7
2017-12-27T12:19:44.598Z,961.67
2017-12-27T12:20:44.593Z,961.73
2017-12-27T12:21:44.591Z,961.7
2017-12-27T12:22:44.584Z,961.69
2017-12-27T12:23:44.585Z,961.63
2017-12-27T12:24:44.574Z,961.66
2017-12-27T12:25:44.569Z,961.68
2017-12-27T12:26:44.570Z,961.64
2017-12-27T12:27:44.557Z,961.66
2017-12-27T12:28:44.554Z,961.66
2017-12-27T12:29:44.554Z,961.65
2017-12-27T12:30:44.544Z,961.7
2017-12-27T12:31:44.538Z,961.71
2017-12-27T12:32:44.532Z,961.73
2017-12-27T12:33:44.528Z,961.77
2017-12-27T12:34:44.531Z,961.72
2017-12-27T12:35:44.521Z,961.74
2017-12-27T12:36:44.520Z,961.72
2017-12-27T12:37:44.508Z,961.72
2017-12-27T12:38:44.504Z,961.69
2017-12-27T12:39:44.505Z,961.72
2017-12-27T12:40:44.494Z,961.74
2017-12-27T12:41:44.487Z,961.69
2017-12-27T12:42:44.486Z,961.66
2017-12-27T12:43:44.478Z,961.64
2017-12-27T12:44:44.478Z,961.62
2017-12-27T12:45:44.466Z,961.62
2017-12-27T12:46:44.462Z,961.61
2017-12-27T12:47:44.462Z,961.6
2017-12-27T12:48:44.454Z,961.6
2017-12-27T12:49:44.447Z,961.63
2017-12-27T12:50:44.441Z,961.68
2017-12-27T12:51:44.437Z,961.65
2017-12-27T12:52:44.432Z,961.7
2017-12-27T12:53:44.428Z,961.69
2017-12-27T12:54:44.423Z,961.69
2017-12-27T12:55:44.417Z,961.65
2017-12-27T12:56:44.412Z,961.66
2017-12-27T12:57:44.410Z,961.65
2017-12-27T12:58:44.401Z,961.65
2017-12-27T12:59:44.397Z,961.65
2017-12-27T13:00:44.394Z,961.66